x

West Moresby (46208) Wave Buoy

9:00am - Thu 31st Jul 2014 All times are PDT. -7 hours from GMT.

  • Sig Wave height 2.6ft
  • Peak Period 14s
  • Wind
    9mph, 11mph gusts
  • Sea Temp 60°f
  • Air Temp 59°f
  • Sea Pressure 1024.9mb
  • West Moresby
  • West Moresby

More Historic Weather Station data

Upgrade to MSW Pro to gain access to the past 30 days of data for over 8000 Wavebouys and Weather Stations around the globe.

Join Pro

Comparision Forecast

View Surf forecast
   
Thu 07/31 9:00am 2.5ft 14s 9 11 mph 1024.9mb 60f 59f
8:00am 2.5ft 14s 9 11 mph 1025mb 60f 59f
7:00am 2.5ft 14s 9 11 mph 1024.8mb 60f 59f
6:00am 2.5ft 14s 9 11 mph 1024.5mb 60f 58f
5:00am 2.5ft 14s 9 11 mph 1024.7mb 60f 58f
4:00am 2.5ft 14s 9 11 mph 1024.8mb 60f 59f
3:00am 2.5ft 14s 9 11 mph 1024.7mb 60f 59f
2:00am 3ft 5s 9 11 mph 1024.8mb 60f 59f
1:00am 3ft 5s 9
mph
1025mb 61f 59f
12:00am 3ft 5s 7
mph
1025mb 60f 59f
Wed 07/30 11:00pm 3ft 14s 4 7 mph 1025mb 60f 59f
10:00pm 3ft 14s 4
mph
1025.2mb 61f 59f
9:00pm 2.5ft 14s 4
mph
1025mb 61f 59f
8:00pm 2.5ft 14s 4 7 mph 1025.3mb 61f 60f
7:00pm 2.5ft 14s 4 7 mph 1025.2mb 62f 61f
6:00pm 2.5ft 7s 4
mph
1025.3mb 63f 60f
5:00pm 2.5ft 14s 2 4 mph 1025.1mb 63f 60f
4:00pm 2.5ft 14s 4 7 mph 1025.2mb 62f 60f
3:00pm 3ft 7s 4 7 mph 1025.3mb 62f 60f
2:00pm 3ft 6s 4 7 mph 1025.1mb 61f 59f
1:00pm 3.5ft 6s 4 7 mph 1024.9mb 61f 59f
12:00pm 3.5ft 6s 4 7 mph 1024.8mb 60f 59f
11:00am 4ft 6s 4 7 mph 1024.4mb 60f 59f
10:00am 3.5ft 6s 4 7 mph 1024.2mb 59f 59f
9:00am 3.5ft 6s 4 7 mph 1023.9mb 59f 58f
8:00am 3.5ft 6s 4 7 mph 1023.8mb 59f 58f
7:00am 3.5ft 7s 4 7 mph 1023.4mb 59f 58f
6:00am 3.5ft 7s 7
mph
1023.1mb 59f 58f
5:00am 3.5ft 6s 7
mph
1022.9mb 59f 58f
4:00am 4ft 7s 7
mph
1022.8mb 59f 58f
3:00am 4.5ft 7s 7 9 mph 1022.7mb 59f 58f
2:00am 4.5ft 7s 9 11 mph 1022.6mb 59f 58f
1:00am 4.5ft 6s 11 13 mph 1022.4mb 59f 58f
12:00am 4.5ft 7s 11 13 mph 1022.2mb 59f 58f
Tue 07/29 11:00pm 4.5ft 6s 11 13 mph 1022.2mb 59f 59f
10:00pm 4ft 7s 11 13 mph 1022.2mb 59f 59f
9:00pm 4ft 7s 13 16 mph 1021.8mb 59f 59f
8:00pm 4ft 7s 13 18 mph 1021.7mb 59f 59f
7:00pm 4ft 7s 13 16 mph 1021.4mb 59f 59f
6:00pm 3.5ft 7s 13 16 mph 1021.1mb 59f 59f
5:00pm 4ft 7s 13 16 mph 1020.7mb 59f 59f
4:00pm 4.5ft 7s 13 16 mph 1020.6mb 59f 59f
3:00pm 4.5ft 7s 13 18 mph 1020.2mb 59f 59f
2:00pm 4ft 7s 16 20 mph 1019.6mb 59f 59f
1:00pm 4ft 7s 13 16 mph 1019.2mb 59f 59f
12:00pm 3.5ft 7s 13
mph
1018.8mb 59f 59f
11:00am 3.5ft 8s 11 13 mph 1018.3mb 59f 58f
10:00am 3.5ft 8s 7 9 mph 1017.8mb 58f 58f
9:00am 3.5ft 7s 9 11 mph 1017.3mb 58f 57f
8:00am 3.5ft 7s 11 13 mph 1016.7mb 58f 57f
7:00am 3.5ft 7s 13 18 mph 1016mb 58f 58f
6:00am 3.5ft 7s 11 13 mph 1015.3mb 58f 58f
5:00am 3.5ft 7s 11 13 mph 1014.5mb 58f 57f
4:00am 4ft 7s 11
mph
1014.2mb 59f 57f
3:00am 4.5ft 7s 9 11 mph 1013.9mb 59f 57f
2:00am 4ft 7s 9
mph
1014mb 58f 57f
1:00am 4.5ft 6s 9 11 mph 1014mb 58f 57f
12:00am 4.5ft 6s 9
mph
1014.2mb 58f 58f
Mon 07/28 11:00pm 3.5ft 6s 9
mph
1014.1mb 59f 58f
10:00pm 3.5ft 6s 7 9 mph 1014.4mb 59f 58f
9:00pm 3.5ft 5s 7 9 mph 1014.3mb 59f 58f
8:00pm 3.5ft 6s 7 9 mph 1014.5mb 59f 58f
7:00pm 3.5ft 6s 9
mph
1014.9mb 59f 58f
6:00pm 3.5ft 6s 9 11 mph 1015.3mb 59f 58f
5:00pm 3.5ft 6s 4
mph
1015.8mb 59f 58f
4:00pm 3.5ft 6s 7
mph
1016.1mb 59f 58f
3:00pm 4ft 6s 7 9 mph 1016.1mb 59f 58f
2:00pm 4.5ft 5s 9 11 mph 1016.2mb 59f 58f
1:00pm 4.5ft 6s 13 16 mph 1015.9mb 58f 58f
12:00pm 4.5ft 5s 16 20 mph 1015.6mb 58f 59f
11:00am 4.5ft 5s 20 25 mph 1015.3mb 58f 59f
10:00am 4ft 8s 20 27 mph 1015.3mb 58f 59f
9:00am 4ft 8s 18 22 mph 1016mb 58f 58f
8:00am 3.5ft 8s 18 22 mph 1016.5mb 58f 59f
7:00am 3.5ft 7s 16 18 mph 1017.1mb 58f 59f
6:00am 3.5ft 7s 18 20 mph 1017.4mb 58f 59f
5:00am 3.5ft 8s 16 18 mph 1017.5mb 58f 59f
4:00am 3.5ft 7s 13 16 mph 1017.7mb 58f 59f
3:00am 3.5ft 8s 9 11 mph 1017.9mb 58f 59f
2:00am 3.5ft 7s 13 16 mph 1018.4mb 58f 59f
1:00am 3.5ft 7s 13
mph
1018.8mb 58f 59f
12:00am 3.5ft 9s 13
mph
1018.9mb 58f 59f
Sun 07/27 11:00pm 3.5ft 8s 13 16 mph 1019.2mb 58f 59f
10:00pm 3.5ft 8s 13 16 mph 1019.4mb 58f 59f
9:00pm 4ft 7s 11 13 mph 1019.4mb 58f 59f
8:00pm 4ft 6s 11 13 mph 1019.6mb 59f 59f
7:00pm 4ft 8s 13 16 mph 1019.8mb 59f 59f
6:00pm 4ft 7s 13 16 mph 1020mb 59f 59f